createdAt,value
2018-11-21T00:00:47.419Z,98.70
2018-11-21T00:02:04.205Z,98.50
2018-11-21T00:03:20.657Z,98.50
2018-11-21T00:04:36.601Z,98.50
2018-11-21T00:05:52.732Z,98.70
2018-11-21T00:07:09.310Z,98.80
2018-11-21T00:08:25.395Z,99.00
2018-11-21T00:09:41.762Z,98.80
2018-11-21T00:10:57.561Z,99.10
2018-11-21T00:12:13.644Z,98.90
2018-11-21T00:13:30.234Z,98.90
2018-11-21T00:14:48.262Z,99.10
2018-11-21T00:16:07.631Z,98.80
2018-11-21T00:17:23.868Z,98.80
2018-11-21T00:18:40.689Z,98.80
2018-11-21T00:19:59.892Z,98.80
2018-11-21T00:21:16.381Z,98.70
2018-11-21T00:22:32.911Z,98.70
2018-11-21T00:23:49.814Z,98.70
2018-11-21T00:25:06.171Z,98.80
2018-11-21T00:26:23.012Z,98.80
2018-11-21T00:27:39.063Z,98.80
2018-11-21T00:28:55.426Z,98.90
2018-11-21T00:30:13.532Z,99.00
2018-11-21T00:31:29.929Z,99.00
2018-11-21T00:32:46.362Z,99.10
2018-11-21T00:34:02.046Z,99.20
2018-11-21T00:35:18.334Z,99.30
2018-11-21T00:36:35.073Z,99.60
2018-11-21T00:37:51.183Z,99.40
2018-11-21T00:39:07.929Z,99.50
2018-11-21T00:40:24.562Z,99.60
2018-11-21T00:41:41.779Z,99.60
2018-11-21T00:42:57.610Z,99.80
2018-11-21T00:44:13.326Z,99.70
2018-11-21T00:45:29.398Z,99.80
2018-11-21T00:46:45.564Z,99.80
2018-11-21T00:48:02.108Z,99.90
2018-11-21T00:49:18.366Z,99.90
2018-11-21T00:50:34.066Z,99.90
2018-11-21T00:51:48.438Z,99.90
2018-11-21T00:53:06.723Z,99.90
2018-11-21T00:54:25.803Z,99.90
2018-11-21T00:55:41.427Z,99.90
2018-11-21T00:56:57.889Z,99.90
2018-11-21T00:58:15.302Z,99.90
2018-11-21T00:59:34.515Z,99.90
2018-11-21T01:00:49.283Z,99.90
2018-11-21T01:02:12.617Z,99.90
2018-11-21T01:03:29.276Z,99.90
2018-11-21T01:04:45.239Z,99.90
2018-11-21T01:06:01.873Z,99.90
2018-11-21T01:07:18.415Z,99.90
2018-11-21T01:08:35.083Z,99.90
2018-11-21T01:09:51.198Z,99.90
2018-11-21T01:11:07.704Z,99.90
2018-11-21T01:12:23.722Z,99.90
2018-11-21T01:13:40.000Z,99.90
2018-11-21T01:14:59.297Z,99.90
2018-11-21T01:16:16.023Z,99.90
2018-11-21T01:17:35.284Z,99.90
2018-11-21T01:18:51.306Z,99.90
2018-11-21T01:20:07.824Z,99.90
2018-11-21T01:21:23.928Z,99.90
2018-11-21T01:22:39.518Z,99.90
2018-11-21T01:23:55.868Z,99.90
2018-11-21T01:25:11.553Z,99.90
2018-11-21T01:26:27.200Z,99.90
2018-11-21T01:27:43.354Z,99.90
2018-11-21T01:28:58.963Z,99.90
2018-11-21T01:30:15.222Z,99.90
2018-11-21T01:31:31.762Z,99.90
2018-11-21T01:32:47.862Z,99.90
2018-11-21T01:34:03.724Z,99.90
2018-11-21T01:35:20.122Z,99.90
2018-11-21T01:36:36.298Z,99.90
2018-11-21T01:37:52.362Z,99.90
2018-11-21T01:39:08.925Z,99.90
2018-11-21T01:40:23.406Z,99.90
2018-11-21T01:41:40.281Z,99.90
2018-11-21T01:42:56.294Z,99.90
2018-11-21T01:44:12.778Z,99.90
2018-11-21T01:45:29.679Z,99.90
2018-11-21T01:46:45.663Z,99.90
2018-11-21T01:48:01.741Z,99.90
2018-11-21T01:49:18.105Z,99.90
2018-11-21T01:50:34.488Z,99.90
2018-11-21T01:51:50.702Z,99.90
2018-11-21T01:53:07.497Z,99.90
2018-11-21T01:54:23.767Z,99.90
2018-11-21T01:55:40.528Z,99.90
2018-11-21T01:56:56.372Z,99.90
2018-11-21T01:58:12.147Z,99.90
2018-11-21T01:59:28.331Z,99.90
2018-11-21T02:00:43.995Z,99.90
2018-11-21T02:02:02.936Z,99.90
2018-11-21T02:03:18.900Z,99.90
2018-11-21T02:04:35.062Z,99.90
2018-11-21T02:05:51.024Z,99.90
2018-11-21T02:07:06.222Z,99.90
2018-11-21T02:08:29.485Z,99.90
2018-11-21T02:09:46.161Z,99.90
2018-11-21T02:11:02.711Z,99.90
2018-11-21T02:12:07.106Z,99.90
2018-11-21T02:15:07.170Z,99.90
2018-11-21T02:16:11.568Z,99.90
2018-11-21T02:17:35.024Z,99.90
2018-11-21T02:18:51.375Z,99.90
2018-11-21T02:20:07.969Z,99.90
2018-11-21T02:21:23.907Z,99.90
2018-11-21T02:22:40.264Z,99.90
2018-11-21T02:23:56.644Z,99.90
2018-11-21T02:25:13.071Z,99.90
2018-11-21T02:26:29.623Z,99.90
2018-11-21T02:27:48.042Z,99.90
2018-11-21T02:29:04.306Z,99.90
2018-11-21T02:30:20.780Z,99.90
2018-11-21T02:31:36.774Z,99.90
2018-11-21T02:32:52.881Z,99.90
2018-11-21T02:34:09.119Z,99.90
2018-11-21T02:35:25.639Z,99.90
2018-11-21T02:36:41.878Z,99.90
2018-11-21T02:37:57.594Z,99.90
2018-11-21T02:39:13.591Z,99.90
2018-11-21T02:40:29.626Z,99.90
2018-11-21T02:41:45.914Z,99.90
2018-11-21T02:44:26.591Z,99.90
2018-11-21T02:45:43.676Z,99.90
2018-11-21T02:46:59.779Z,99.90
2018-11-21T02:48:16.151Z,99.90
2018-11-21T02:49:32.260Z,99.90
2018-11-21T02:50:48.655Z,99.90
2018-11-21T02:52:05.382Z,99.90
2018-11-21T02:53:21.890Z,99.90
2018-11-21T02:54:38.109Z,99.90
2018-11-21T02:55:54.683Z,99.90
2018-11-21T02:57:11.088Z,99.90
2018-11-21T02:58:27.493Z,99.90
2018-11-21T02:59:43.188Z,99.90
2018-11-21T03:00:58.881Z,99.90
2018-11-21T03:02:14.552Z,99.90
2018-11-21T03:03:31.023Z,99.90
2018-11-21T03:04:49.093Z,99.90
2018-11-21T03:06:05.239Z,99.90
2018-11-21T03:07:21.402Z,99.90
2018-11-21T03:08:37.044Z,99.90
2018-11-21T03:09:51.778Z,99.90
2018-11-21T03:11:15.121Z,99.90
2018-11-21T03:12:38.933Z,99.90
2018-11-21T03:14:02.254Z,99.90
2018-11-21T03:15:16.826Z,99.90
2018-11-21T03:18:15.753Z,99.90
2018-11-21T03:19:32.331Z,99.90
2018-11-21T03:20:48.760Z,99.90
2018-11-21T03:22:04.799Z,99.90
2018-11-21T03:23:20.586Z,99.90
2018-11-21T03:24:36.536Z,99.90
2018-11-21T03:25:53.232Z,99.90
2018-11-21T03:27:09.758Z,99.90
2018-11-21T03:28:26.120Z,99.90
2018-11-21T03:29:42.683Z,99.90
2018-11-21T03:30:59.238Z,99.90
2018-11-21T03:32:14.447Z,99.90
2018-11-21T03:33:37.801Z,99.90
2018-11-21T03:34:42.526Z,99.90
2018-11-21T03:35:47.863Z,99.90
2018-11-21T03:37:01.417Z,99.90
2018-11-21T03:38:10.168Z,99.90
2018-11-21T03:41:17.137Z,99.90
2018-11-21T03:42:21.445Z,99.90
2018-11-21T03:43:25.513Z,99.90
2018-11-21T03:44:29.978Z,99.90
2018-11-21T03:45:34.792Z,99.90
2018-11-21T03:46:39.983Z,99.90
2018-11-21T03:47:44.404Z,99.90
2018-11-21T03:48:48.729Z,99.90
2018-11-21T03:49:53.111Z,99.90
2018-11-21T03:51:16.509Z,99.90
2018-11-21T03:52:59.277Z,99.90
2018-11-21T03:54:15.691Z,99.90
2018-11-21T03:55:33.121Z,99.90
2018-11-21T03:56:48.751Z,99.90
2018-11-21T03:58:04.964Z,99.90
2018-11-21T03:59:21.857Z,99.90
2018-11-21T04:00:39.598Z,99.90
2018-11-21T04:01:55.899Z,99.90
2018-11-21T04:03:11.666Z,99.90
2018-11-21T04:04:29.997Z,99.90
2018-11-21T04:05:46.708Z,99.90
2018-11-21T04:07:05.136Z,99.90
2018-11-21T04:08:23.586Z,99.90
2018-11-21T04:09:40.929Z,99.90
2018-11-21T04:10:59.274Z,99.90
2018-11-21T04:12:17.777Z,99.90
2018-11-21T04:13:33.832Z,99.90
2018-11-21T04:14:51.160Z,99.90
2018-11-21T04:16:07.324Z,99.90
2018-11-21T04:17:23.949Z,99.90
2018-11-21T04:18:40.012Z,99.90
2018-11-21T04:19:55.680Z,99.90
2018-11-21T04:21:12.392Z,99.90
2018-11-21T04:22:28.719Z,99.90
2018-11-21T04:23:44.687Z,99.90
2018-11-21T04:25:03.183Z,99.90
2018-11-21T04:26:19.602Z,99.90
2018-11-21T04:27:36.184Z,99.90
2018-11-21T04:28:52.159Z,99.90
2018-11-21T04:30:08.435Z,99.90
2018-11-21T04:31:27.497Z,99.90
2018-11-21T04:32:54.907Z,99.90
2018-11-21T04:34:00.666Z,99.90
2018-11-21T04:35:05.686Z,99.90
2018-11-21T04:36:15.229Z,99.90
2018-11-21T04:37:19.929Z,99.90
2018-11-21T04:38:23.900Z,99.90
2018-11-21T04:39:31.015Z,99.90
2018-11-21T04:40:36.183Z,99.90
2018-11-21T04:41:40.562Z,99.90
2018-11-21T04:43:04.369Z,99.90
2018-11-21T04:44:20.875Z,99.90
2018-11-21T04:45:37.720Z,99.90
2018-11-21T04:46:53.998Z,99.90
2018-11-21T04:48:11.449Z,99.90
2018-11-21T04:49:29.701Z,99.90
2018-11-21T04:50:47.991Z,99.90
2018-11-21T04:52:10.203Z,99.90
2018-11-21T04:53:28.460Z,99.90
2018-11-21T04:54:46.533Z,99.90
2018-11-21T04:56:04.217Z,99.90
2018-11-21T04:57:22.124Z,99.90
2018-11-21T04:58:41.521Z,99.90
2018-11-21T05:00:01.891Z,99.90
2018-11-21T05:01:20.899Z,99.90
2018-11-21T05:02:39.139Z,99.90
2018-11-21T05:03:55.890Z,99.90
2018-11-21T05:05:15.122Z,99.90
2018-11-21T05:08:25.445Z,99.90
2018-11-21T05:09:40.355Z,99.90
2018-11-21T05:10:44.949Z,99.90
2018-11-21T05:11:49.581Z,99.90
2018-11-21T05:12:53.699Z,99.90
2018-11-21T05:13:58.497Z,99.90
2018-11-21T05:15:02.883Z,99.90
2018-11-21T05:16:07.676Z,99.90
2018-11-21T05:17:11.651Z,99.90
2018-11-21T05:19:58.258Z,99.90
2018-11-21T05:23:12.535Z,99.90
2018-11-21T05:24:35.978Z,99.90
2018-11-21T05:26:02.791Z,99.90
2018-11-21T05:27:14.142Z,99.90
2018-11-21T05:28:30.531Z,99.90
2018-11-21T05:29:47.023Z,99.90
2018-11-21T05:31:06.938Z,99.90
2018-11-21T05:32:27.080Z,99.90
2018-11-21T05:33:43.909Z,99.90
2018-11-21T05:35:02.301Z,99.90
2018-11-21T05:36:17.114Z,99.90
2018-11-21T05:39:40.108Z,99.90
2018-11-21T05:40:59.752Z,99.90
2018-11-21T05:42:27.052Z,99.90
2018-11-21T05:43:35.609Z,99.90
2018-11-21T05:44:39.957Z,99.90
2018-11-21T05:45:54.200Z,99.90
2018-11-21T05:47:04.433Z,99.90
2018-11-21T05:51:54.491Z,99.90
2018-11-21T05:53:15.585Z,99.90
2018-11-21T05:54:38.213Z,99.90
2018-11-21T05:55:44.749Z,99.90
2018-11-21T05:56:49.130Z,99.90
2018-11-21T05:58:01.334Z,99.90
2018-11-21T05:59:22.392Z,99.90
2018-11-21T06:00:32.722Z,99.90
2018-11-21T06:01:43.843Z,99.90
2018-11-21T06:02:57.567Z,99.90
2018-11-21T06:04:24.794Z,99.90
2018-11-21T06:05:34.947Z,99.90
2018-11-21T06:09:00.729Z,99.90
2018-11-21T06:10:20.171Z,99.90
2018-11-21T06:11:37.457Z,99.90
2018-11-21T06:12:55.590Z,99.90
2018-11-21T06:15:34.836Z,99.90
2018-11-21T06:16:47.690Z,99.90
2018-11-21T06:17:57.184Z,99.90
2018-11-21T06:19:24.532Z,99.90
2018-11-21T06:22:18.725Z,99.90
2018-11-21T06:23:34.577Z,99.90
2018-11-21T06:24:51.150Z,99.90
2018-11-21T06:29:14.135Z,99.90
2018-11-21T06:30:30.289Z,99.90
2018-11-21T06:31:46.624Z,99.90
2018-11-21T06:33:03.329Z,99.90
2018-11-21T06:35:36.902Z,99.90
2018-11-21T06:38:30.913Z,99.90
2018-11-21T06:39:47.228Z,99.90
2018-11-21T06:41:04.182Z,99.90
2018-11-21T06:42:20.123Z,99.90
2018-11-21T06:43:36.636Z,99.90
2018-11-21T06:45:00.372Z,99.90
2018-11-21T06:46:05.774Z,99.90
2018-11-21T06:47:12.845Z,99.90
2018-11-21T06:48:17.738Z,99.90
2018-11-21T06:49:22.063Z,99.90
2018-11-21T06:50:26.709Z,99.90
2018-11-21T06:51:35.180Z,99.90
2018-11-21T06:52:35.925Z,99.90
2018-11-21T06:53:40.789Z,99.90
2018-11-21T06:54:45.411Z,99.90
2018-11-21T06:55:50.574Z,99.90
2018-11-21T06:56:58.810Z,99.90
2018-11-21T06:58:03.936Z,99.90
2018-11-21T06:59:11.214Z,99.90
2018-11-21T07:00:18.930Z,99.90
2018-11-21T07:01:42.323Z,99.90
2018-11-21T07:03:07.289Z,99.90
2018-11-21T07:04:12.994Z,99.90
2018-11-21T07:05:17.473Z,99.90
2018-11-21T07:06:26.786Z,99.90
2018-11-21T07:07:41.763Z,99.90
2018-11-21T07:08:48.223Z,99.90
2018-11-21T07:10:00.119Z,99.90
2018-11-21T07:13:02.568Z,99.90
2018-11-21T07:14:19.052Z,99.90
2018-11-21T07:15:35.975Z,99.90
2018-11-21T07:16:52.577Z,99.90
2018-11-21T07:18:09.650Z,99.90
2018-11-21T07:19:14.655Z,99.90
2018-11-21T07:20:19.073Z,99.90
2018-11-21T07:21:23.063Z,99.90
2018-11-21T07:22:27.372Z,99.90
2018-11-21T07:23:32.833Z,99.90
2018-11-21T07:24:37.833Z,99.90
2018-11-21T07:25:42.685Z,99.90
2018-11-21T07:26:52.909Z,99.90
2018-11-21T07:29:56.125Z,99.90
2018-11-21T07:31:14.346Z,99.90
2018-11-21T07:32:31.332Z,99.90
2018-11-21T07:33:48.973Z,99.90
2018-11-21T07:35:07.583Z,99.90
2018-11-21T07:37:45.650Z,99.90
2018-11-21T07:39:01.320Z,99.90
2018-11-21T07:41:59.707Z,99.90
2018-11-21T07:43:17.475Z,99.90
2018-11-21T07:44:26.940Z,99.90
2018-11-21T07:46:07.625Z,99.90
2018-11-21T07:47:53.667Z,99.90
2018-11-21T07:49:18.059Z,99.90
2018-11-21T07:52:19.690Z,99.90
2018-11-21T07:53:38.524Z,99.90
2018-11-21T07:54:58.073Z,99.90
2018-11-21T07:56:14.833Z,99.90
2018-11-21T07:57:32.268Z,99.90
2018-11-21T07:58:48.839Z,99.90
2018-11-21T08:00:20.903Z,99.90
2018-11-21T08:03:31.898Z,99.90
2018-11-21T08:05:00.334Z,99.90
2018-11-21T08:06:35.168Z,99.90
2018-11-21T08:07:58.300Z,99.90
2018-11-21T08:09:46.718Z,99.90
2018-11-21T08:11:22.362Z,99.90
2018-11-21T08:14:48.885Z,99.90
2018-11-21T08:16:24.231Z,99.90
2018-11-21T08:19:51.758Z,99.90
2018-11-21T08:21:32.131Z,99.90
2018-11-21T08:22:51.357Z,99.90
2018-11-21T08:24:23.184Z,99.90
2018-11-21T08:27:50.910Z,99.90
2018-11-21T08:42:24.833Z,99.90
2018-11-21T08:45:29.947Z,99.90
2018-11-21T08:47:03.743Z,99.90
2018-11-21T08:48:20.790Z,99.90
2018-11-21T08:49:41.765Z,99.90
2018-11-21T08:50:58.083Z,99.90
2018-11-21T08:52:14.966Z,99.90
2018-11-21T08:53:19.092Z,99.90
2018-11-21T08:54:23.335Z,99.90
2018-11-21T08:55:49.887Z,99.90
2018-11-21T08:57:06.140Z,99.90
2018-11-21T08:58:22.375Z,99.90
2018-11-21T08:59:26.864Z,99.90
2018-11-21T09:00:31.716Z,99.90
2018-11-21T09:01:38.235Z,99.90
2018-11-21T09:03:01.712Z,99.90
2018-11-21T09:04:17.960Z,99.90
2018-11-21T09:05:33.885Z,99.90
2018-11-21T09:06:40.140Z,99.90
2018-11-21T09:08:04.533Z,99.90
2018-11-21T09:09:28.437Z,99.90
2018-11-21T09:10:44.368Z,99.90
2018-11-21T09:12:01.077Z,99.90
2018-11-21T09:13:05.178Z,99.90
2018-11-21T09:14:30.875Z,99.90
2018-11-21T09:15:46.726Z,99.90
2018-11-21T09:17:03.358Z,99.90
2018-11-21T09:18:19.751Z,99.90
2018-11-21T09:21:10.016Z,99.90
2018-11-21T09:22:26.172Z,99.90
2018-11-21T09:23:43.590Z,99.90
2018-11-21T09:25:01.183Z,99.90
2018-11-21T09:29:15.292Z,99.90
2018-11-21T09:30:21.501Z,99.90
2018-11-21T09:31:45.985Z,99.90
2018-11-21T09:33:52.513Z,99.90
2018-11-21T09:35:12.237Z,99.90
2018-11-21T09:37:53.286Z,99.90
2018-11-21T09:39:10.328Z,99.90
2018-11-21T09:40:29.153Z,99.90
2018-11-21T09:45:06.359Z,99.90
2018-11-21T09:46:25.107Z,99.90
2018-11-21T09:47:43.637Z,99.90
2018-11-21T09:49:06.083Z,99.90
2018-11-21T09:50:29.962Z,99.90
2018-11-21T09:51:48.170Z,99.90
2018-11-21T09:53:04.717Z,99.90
2018-11-21T09:54:21.751Z,99.90
2018-11-21T09:55:40.372Z,99.90
2018-11-21T09:56:54.295Z,99.90
2018-11-21T10:00:13.818Z,99.90
2018-11-21T10:01:30.067Z,99.90
2018-11-21T10:02:47.676Z,99.90
2018-11-21T10:04:08.998Z,99.90
2018-11-21T10:05:25.197Z,99.90
2018-11-21T10:06:44.533Z,99.90
2018-11-21T10:11:02.914Z,99.90
2018-11-21T10:12:19.246Z,99.90
2018-11-21T10:13:35.477Z,99.90
2018-11-21T10:14:51.787Z,99.90
2018-11-21T10:16:34.227Z,99.90
2018-11-21T10:17:38.722Z,99.90
2018-11-21T10:19:02.405Z,99.90
2018-11-21T10:20:07.818Z,99.90
2018-11-21T10:21:25.397Z,99.90
2018-11-21T10:22:49.159Z,99.90
2018-11-21T10:24:03.114Z,99.90
2018-11-21T10:25:19.595Z,99.90
2018-11-21T10:26:38.021Z,99.90
2018-11-21T10:27:56.250Z,99.90
2018-11-21T10:29:12.456Z,99.90
2018-11-21T10:30:28.886Z,99.90
2018-11-21T10:31:45.087Z,99.90
2018-11-21T10:33:01.263Z,99.90
2018-11-21T10:34:20.136Z,99.90
2018-11-21T10:35:36.629Z,99.70
2018-11-21T10:36:53.599Z,99.90
2018-11-21T10:37:57.984Z,99.50
2018-11-21T10:39:02.684Z,99.50
2018-11-21T10:40:26.857Z,99.40
2018-11-21T10:41:52.357Z,99.30
2018-11-21T10:42:59.087Z,99.20
2018-11-21T10:44:04.173Z,99.40
2018-11-21T10:45:09.544Z,99.30
2018-11-21T10:46:15.249Z,99.40
2018-11-21T10:47:19.664Z,98.80
2018-11-21T10:48:29.787Z,98.90
2018-11-21T10:49:35.333Z,98.70
2018-11-21T10:50:42.558Z,98.80
2018-11-21T10:51:48.443Z,98.80
2018-11-21T10:52:56.862Z,98.60
2018-11-21T10:54:04.087Z,98.60
2018-11-21T10:55:09.013Z,98.40
2018-11-21T10:56:17.899Z,98.80
2018-11-21T10:57:31.959Z,98.50
2018-11-21T11:00:54.880Z,98.70
2018-11-21T11:04:28.529Z,98.40
2018-11-21T11:11:10.158Z,98.40
2018-11-21T11:12:48.056Z,98.50
2018-11-21T11:19:31.061Z,98.50
2018-11-21T11:21:07.624Z,98.40
2018-11-21T11:22:42.677Z,98.20
2018-11-21T11:24:18.267Z,98.10
2018-11-21T11:27:43.754Z,98.10
2018-11-21T11:29:22.155Z,98.30
2018-11-21T11:32:48.383Z,98.20
2018-11-21T11:34:23.184Z,98.10
2018-11-21T11:36:04.287Z,97.90
2018-11-21T11:37:42.267Z,97.80
2018-11-21T11:39:23.480Z,97.90
2018-11-21T11:41:01.719Z,97.80
2018-11-21T11:42:37.301Z,97.70
2018-11-21T11:44:12.016Z,97.70
2018-11-21T11:45:47.215Z,97.60
2018-11-21T11:47:22.184Z,97.70
2018-11-21T11:49:03.627Z,97.60
2018-11-21T11:50:38.488Z,97.80
2018-11-21T11:52:16.350Z,98.20
2018-11-21T11:59:07.419Z,97.20
2018-11-21T12:02:26.363Z,97.20
2018-11-21T12:04:01.879Z,97.30
2018-11-21T12:05:37.968Z,97.50
2018-11-21T12:07:08.084Z,97.50
2018-11-21T12:08:44.274Z,97.50
2018-11-21T12:11:22.224Z,97.30
2018-11-21T12:13:02.665Z,97.10
2018-11-21T12:15:47.551Z,97.10
2018-11-21T12:17:26.135Z,97.20
2018-11-21T12:18:43.220Z,97.30
2018-11-21T12:24:01.188Z,97.40
2018-11-21T12:28:47.997Z,97.60
2018-11-21T12:32:04.799Z,97.20
2018-11-21T12:33:40.188Z,97.50
2018-11-21T12:35:13.871Z,97.50
2018-11-21T12:36:35.650Z,97.30
2018-11-21T12:37:57.390Z,97.50
2018-11-21T12:39:23.557Z,97.80
2018-11-21T12:40:48.229Z,97.50
2018-11-21T12:42:15.965Z,97.40
2018-11-21T12:43:31.622Z,97.60
2018-11-21T12:45:10.229Z,97.80
2018-11-21T12:46:32.309Z,97.70
2018-11-21T12:50:31.112Z,98.40
2018-11-21T12:52:06.081Z,97.50
2018-11-21T12:53:32.791Z,97.80
2018-11-21T12:56:49.096Z,97.70
2018-11-21T12:58:25.621Z,97.70
2018-11-21T13:00:15.201Z,97.70
2018-11-21T13:03:55.317Z,98.00
2018-11-21T13:08:45.857Z,98.00
2018-11-21T13:10:16.639Z,97.70
2018-11-21T13:11:55.148Z,97.60
2018-11-21T13:13:31.992Z,97.70
2018-11-21T13:15:07.678Z,97.90
2018-11-21T13:16:50.175Z,98.30
2018-11-21T13:20:21.179Z,98.40
2018-11-21T13:21:59.830Z,98.40
2018-11-21T13:25:39.152Z,98.20
2018-11-21T13:27:15.662Z,98.10
2018-11-21T13:28:30.194Z,98.20
2018-11-21T13:30:13.600Z,98.50
2018-11-21T13:32:03.521Z,98.50
2018-11-21T13:33:29.765Z,98.50
2018-11-21T13:35:19.980Z,98.20
2018-11-21T13:36:54.915Z,98.30
2018-11-21T13:38:23.260Z,98.50
2018-11-21T13:39:42.497Z,98.40
2018-11-21T13:41:08.114Z,98.20
2018-11-21T13:42:30.350Z,98.20
2018-11-21T13:44:16.586Z,98.10
2018-11-21T13:45:52.008Z,98.10
2018-11-21T13:47:27.457Z,98.60
2018-11-21T13:49:02.726Z,98.20
2018-11-21T13:52:24.732Z,98.30
2018-11-21T13:54:00.173Z,98.50
2018-11-21T13:55:18.300Z,98.60
2018-11-21T13:56:34.645Z,98.50
2018-11-21T13:57:51.715Z,98.40
2018-11-21T13:59:08.739Z,98.20
2018-11-21T14:00:25.036Z,98.10
2018-11-21T14:01:41.503Z,98.30
2018-11-21T14:02:57.404Z,98.40
2018-11-21T14:06:12.849Z,98.40
2018-11-21T14:07:34.120Z,98.60
2018-11-21T14:08:59.463Z,98.40
2018-11-21T14:13:34.986Z,98.40
2018-11-21T14:14:54.354Z,98.30
2018-11-21T14:17:43.933Z,98.50
2018-11-21T14:20:23.799Z,98.30
2018-11-21T14:21:39.611Z,98.30
2018-11-21T14:22:55.933Z,98.30
2018-11-21T14:24:14.715Z,98.40
2018-11-21T14:25:33.739Z,98.40
2018-11-21T14:26:49.948Z,98.30
2018-11-21T14:28:07.271Z,98.40
2018-11-21T14:29:24.015Z,98.60
2018-11-21T14:30:42.620Z,98.60
2018-11-21T14:31:58.877Z,98.50
2018-11-21T14:33:20.672Z,98.70
2018-11-21T14:37:36.249Z,98.40
2018-11-21T14:38:52.436Z,98.50
2018-11-21T14:40:40.245Z,98.50
2018-11-21T14:47:05.205Z,98.70
2018-11-21T14:49:40.863Z,99.10
2018-11-21T14:52:20.370Z,98.70
2018-11-21T14:53:37.072Z,98.70
2018-11-21T14:54:56.013Z,98.80
2018-11-21T14:57:56.110Z,98.70
2018-11-21T15:00:42.709Z,98.60
2018-11-21T15:02:03.150Z,98.40
2018-11-21T15:03:22.103Z,98.50
2018-11-21T15:04:39.006Z,98.50
2018-11-21T15:06:13.550Z,98.60
